sensor_id;sensor_type;location;lat;lon;timestamp;P1;durP1;ratioP1;P2;durP2;ratioP2
7587;SDS011;3835;48.850;8.938;2023-04-24T00:01:22;11.67;;;11.17;;
7587;SDS011;3835;48.850;8.938;2023-04-24T00:03:49;11.40;;;10.87;;
7587;SDS011;3835;48.850;8.938;2023-04-24T00:06:16;10.87;;;10.30;;
7587;SDS011;3835;48.850;8.938;2023-04-24T00:08:43;11.30;;;10.80;;
7587;SDS011;3835;48.850;8.938;2023-04-24T00:11:09;10.57;;;10.10;;
7587;SDS011;3835;48.850;8.938;2023-04-24T00:13:37;11.53;;;10.93;;
7587;SDS011;3835;48.850;8.938;2023-04-24T00:16:05;11.87;;;11.37;;
7587;SDS011;3835;48.850;8.938;2023-04-24T00:18:32;12.23;;;11.73;;
7587;SDS011;3835;48.850;8.938;2023-04-24T00:20:59;12.63;;;12.03;;
7587;SDS011;3835;48.850;8.938;2023-04-24T00:23:26;12.70;;;12.13;;
7587;SDS011;3835;48.850;8.938;2023-04-24T00:25:52;14.07;;;13.43;;
7587;SDS011;3835;48.850;8.938;2023-04-24T00:28:19;14.53;;;13.83;;
7587;SDS011;3835;48.850;8.938;2023-04-24T00:30:46;13.60;;;12.90;;
7587;SDS011;3835;48.850;8.938;2023-04-24T00:33:14;11.37;;;10.97;;
7587;SDS011;3835;48.850;8.938;2023-04-24T00:35:41;11.70;;;11.20;;
7587;SDS011;3835;48.850;8.938;2023-04-24T00:38:07;11.80;;;11.30;;
7587;SDS011;3835;48.850;8.938;2023-04-24T00:40:34;12.53;;;12.03;;
7587;SDS011;3835;48.850;8.938;2023-04-24T00:43:01;12.70;;;12.10;;
7587;SDS011;3835;48.850;8.938;2023-04-24T00:45:28;11.90;;;11.40;;
7587;SDS011;3835;48.850;8.938;2023-04-24T00:47:56;11.17;;;10.77;;
7587;SDS011;3835;48.850;8.938;2023-04-24T00:50:24;11.20;;;10.70;;
7587;SDS011;3835;48.850;8.938;2023-04-24T00:52:52;11.57;;;11.03;;
7587;SDS011;3835;48.850;8.938;2023-04-24T00:55:18;10.83;;;10.40;;
7587;SDS011;3835;48.850;8.938;2023-04-24T00:57:46;10.07;;;9.63;;
7587;SDS011;3835;48.850;8.938;2023-04-24T01:00:14;12.60;;;11.93;;
7587;SDS011;3835;48.850;8.938;2023-04-24T01:02:43;12.73;;;12.23;;
7587;SDS011;3835;48.850;8.938;2023-04-24T01:05:11;11.60;;;11.10;;
7587;SDS011;3835;48.850;8.938;2023-04-24T01:07:39;11.17;;;10.67;;
7587;SDS011;3835;48.850;8.938;2023-04-24T01:10:09;11.93;;;11.43;;
7587;SDS011;3835;48.850;8.938;2023-04-24T01:12:36;11.43;;;10.93;;
7587;SDS011;3835;48.850;8.938;2023-04-24T01:15:03;12.43;;;11.83;;
7587;SDS011;3835;48.850;8.938;2023-04-24T01:17:31;12.57;;;11.93;;
7587;SDS011;3835;48.850;8.938;2023-04-24T01:19:58;12.23;;;11.60;;
7587;SDS011;3835;48.850;8.938;2023-04-24T01:22:27;10.97;;;10.47;;
7587;SDS011;3835;48.850;8.938;2023-04-24T01:24:54;11.03;;;10.43;;
7587;SDS011;3835;48.850;8.938;2023-04-24T01:27:20;10.83;;;10.43;;
7587;SDS011;3835;48.850;8.938;2023-04-24T01:29:47;12.83;;;12.30;;
7587;SDS011;3835;48.850;8.938;2023-04-24T01:32:16;10.63;;;10.13;;
7587;SDS011;3835;48.850;8.938;2023-04-24T01:34:43;11.07;;;10.67;;
7587;SDS011;3835;48.850;8.938;2023-04-24T01:37:11;10.70;;;10.20;;
7587;SDS011;3835;48.850;8.938;2023-04-24T01:39:39;13.80;;;13.20;;
7587;SDS011;3835;48.850;8.938;2023-04-24T01:42:06;11.93;;;11.33;;
7587;SDS011;3835;48.850;8.938;2023-04-24T01:44:33;11.57;;;11.07;;
7587;SDS011;3835;48.850;8.938;2023-04-24T01:47:00;11.23;;;10.83;;
7587;SDS011;3835;48.850;8.938;2023-04-24T01:49:27;10.53;;;10.07;;
7587;SDS011;3835;48.850;8.938;2023-04-24T01:51:54;11.43;;;10.70;;
7587;SDS011;3835;48.850;8.938;2023-04-24T01:54:21;10.73;;;10.23;;
7587;SDS011;3835;48.850;8.938;2023-04-24T01:56:49;11.50;;;11.00;;
7587;SDS011;3835;48.850;8.938;2023-04-24T01:59:16;10.10;;;9.70;;
7587;SDS011;3835;48.850;8.938;2023-04-24T02:01:43;11.43;;;10.93;;
7587;SDS011;3835;48.850;8.938;2023-04-24T02:04:10;11.67;;;11.10;;
7587;SDS011;3835;48.850;8.938;2023-04-24T02:06:37;10.50;;;10.00;;
7587;SDS011;3835;48.850;8.938;2023-04-24T02:09:04;12.27;;;11.67;;
7587;SDS011;3835;48.850;8.938;2023-04-24T02:11:31;12.33;;;11.83;;
7587;SDS011;3835;48.850;8.938;2023-04-24T02:13:59;12.23;;;11.73;;
7587;SDS011;3835;48.850;8.938;2023-04-24T02:16:26;13.57;;;13.00;;
7587;SDS011;3835;48.850;8.938;2023-04-24T02:18:55;14.27;;;13.67;;
7587;SDS011;3835;48.850;8.938;2023-04-24T02:21:22;17.27;;;16.57;;
7587;SDS011;3835;48.850;8.938;2023-04-24T02:23:48;12.53;;;12.03;;
7587;SDS011;3835;48.850;8.938;2023-04-24T02:26:15;11.83;;;11.23;;
7587;SDS011;3835;48.850;8.938;2023-04-24T02:28:43;10.60;;;10.07;;
7587;SDS011;3835;48.850;8.938;2023-04-24T02:31:11;11.03;;;10.43;;
7587;SDS011;3835;48.850;8.938;2023-04-24T02:33:38;11.33;;;10.83;;
7587;SDS011;3835;48.850;8.938;2023-04-24T02:36:04;12.10;;;11.60;;
7587;SDS011;3835;48.850;8.938;2023-04-24T02:38:31;11.43;;;10.93;;
7587;SDS011;3835;48.850;8.938;2023-04-24T02:40:58;12.17;;;11.57;;
7587;SDS011;3835;48.850;8.938;2023-04-24T02:43:25;12.40;;;11.73;;
7587;SDS011;3835;48.850;8.938;2023-04-24T02:45:52;11.17;;;10.77;;
7587;SDS011;3835;48.850;8.938;2023-04-24T02:48:20;11.23;;;10.73;;
7587;SDS011;3835;48.850;8.938;2023-04-24T02:50:47;11.07;;;10.57;;
7587;SDS011;3835;48.850;8.938;2023-04-24T02:53:14;10.97;;;10.47;;
7587;SDS011;3835;48.850;8.938;2023-04-24T02:55:40;11.67;;;11.03;;
7587;SDS011;3835;48.850;8.938;2023-04-24T02:58:07;11.83;;;11.33;;
7587;SDS011;3835;48.850;8.938;2023-04-24T03:00:35;11.00;;;10.50;;
7587;SDS011;3835;48.850;8.938;2023-04-24T03:03:02;10.43;;;10.03;;
7587;SDS011;3835;48.850;8.938;2023-04-24T03:05:30;11.07;;;10.57;;
7587;SDS011;3835;48.850;8.938;2023-04-24T03:07:57;11.20;;;10.80;;
7587;SDS011;3835;48.850;8.938;2023-04-24T03:10:24;11.93;;;11.43;;
7587;SDS011;3835;48.850;8.938;2023-04-24T03:12:51;12.47;;;11.80;;
7587;SDS011;3835;48.850;8.938;2023-04-24T03:15:17;12.40;;;11.80;;
7587;SDS011;3835;48.850;8.938;2023-04-24T03:17:44;11.70;;;11.10;;
7587;SDS011;3835;48.850;8.938;2023-04-24T03:20:11;11.93;;;11.17;;
7587;SDS011;3835;48.850;8.938;2023-04-24T03:22:39;11.47;;;10.73;;
7587;SDS011;3835;48.850;8.938;2023-04-24T03:25:06;12.00;;;11.50;;
7587;SDS011;3835;48.850;8.938;2023-04-24T03:27:34;11.73;;;11.03;;
7587;SDS011;3835;48.850;8.938;2023-04-24T03:30:01;11.33;;;10.73;;
7587;SDS011;3835;48.850;8.938;2023-04-24T03:32:28;11.23;;;10.77;;
7587;SDS011;3835;48.850;8.938;2023-04-24T03:34:55;10.90;;;10.40;;
7587;SDS011;3835;48.850;8.938;2023-04-24T03:37:22;11.77;;;11.30;;
7587;SDS011;3835;48.850;8.938;2023-04-24T03:39:50;11.33;;;10.83;;
7587;SDS011;3835;48.850;8.938;2023-04-24T03:42:17;12.60;;;12.10;;
7587;SDS011;3835;48.850;8.938;2023-04-24T03:44:43;11.83;;;11.33;;
7587;SDS011;3835;48.850;8.938;2023-04-24T03:47:10;11.10;;;10.47;;
7587;SDS011;3835;48.850;8.938;2023-04-24T03:49:37;12.00;;;11.40;;
7587;SDS011;3835;48.850;8.938;2023-04-24T03:52:04;12.63;;;11.67;;
7587;SDS011;3835;48.850;8.938;2023-04-24T03:54:30;12.17;;;11.57;;
7587;SDS011;3835;48.850;8.938;2023-04-24T03:56:58;12.53;;;12.03;;
7587;SDS011;3835;48.850;8.938;2023-04-24T03:59:26;11.43;;;10.93;;
7587;SDS011;3835;48.850;8.938;2023-04-24T04:01:53;11.87;;;11.27;;
7587;SDS011;3835;48.850;8.938;2023-04-24T04:04:20;11.87;;;11.27;;
7587;SDS011;3835;48.850;8.938;2023-04-24T04:06:46;13.93;;;13.30;;
7587;SDS011;3835;48.850;8.938;2023-04-24T04:09:14;13.70;;;13.10;;
7587;SDS011;3835;48.850;8.938;2023-04-24T04:11:40;13.47;;;12.87;;
7587;SDS011;3835;48.850;8.938;2023-04-24T04:14:08;12.73;;;12.13;;
7587;SDS011;3835;48.850;8.938;2023-04-24T04:16:35;13.93;;;13.23;;
7587;SDS011;3835;48.850;8.938;2023-04-24T04:19:02;12.40;;;11.83;;
7587;SDS011;3835;48.850;8.938;2023-04-24T04:21:29;12.63;;;12.03;;
7587;SDS011;3835;48.850;8.938;2023-04-24T04:23:57;12.57;;;11.97;;
7587;SDS011;3835;48.850;8.938;2023-04-24T04:26:24;12.67;;;12.03;;
7587;SDS011;3835;48.850;8.938;2023-04-24T04:28:51;12.50;;;11.90;;
7587;SDS011;3835;48.850;8.938;2023-04-24T04:31:19;12.77;;;12.17;;
7587;SDS011;3835;48.850;8.938;2023-04-24T04:33:46;12.07;;;11.47;;
7587;SDS011;3835;48.850;8.938;2023-04-24T04:36:13;12.80;;;12.17;;
7587;SDS011;3835;48.850;8.938;2023-04-24T04:38:42;12.10;;;11.60;;
7587;SDS011;3835;48.850;8.938;2023-04-24T04:41:09;12.07;;;11.57;;
7587;SDS011;3835;48.850;8.938;2023-04-24T04:43:36;11.60;;;10.93;;
7587;SDS011;3835;48.850;8.938;2023-04-24T04:46:04;12.80;;;12.20;;
7587;SDS011;3835;48.850;8.938;2023-04-24T04:48:34;13.47;;;12.77;;
7587;SDS011;3835;48.850;8.938;2023-04-24T04:51:01;12.93;;;12.33;;
7587;SDS011;3835;48.850;8.938;2023-04-24T04:53:27;13.07;;;12.47;;
7587;SDS011;3835;48.850;8.938;2023-04-24T04:55:54;11.97;;;11.37;;
7587;SDS011;3835;48.850;8.938;2023-04-24T04:58:21;12.30;;;11.80;;
7587;SDS011;3835;48.850;8.938;2023-04-24T05:00:48;12.53;;;11.73;;
7587;SDS011;3835;48.850;8.938;2023-04-24T05:03:15;11.57;;;10.97;;
7587;SDS011;3835;48.850;8.938;2023-04-24T05:05:43;12.37;;;11.77;;
7587;SDS011;3835;48.850;8.938;2023-04-24T05:08:10;12.40;;;11.77;;
7587;SDS011;3835;48.850;8.938;2023-04-24T05:10:36;12.43;;;11.83;;
7587;SDS011;3835;48.850;8.938;2023-04-24T05:13:03;14.67;;;13.67;;
7587;SDS011;3835;48.850;8.938;2023-04-24T05:15:30;13.10;;;12.37;;
7587;SDS011;3835;48.850;8.938;2023-04-24T05:17:56;13.03;;;12.33;;
7587;SDS011;3835;48.850;8.938;2023-04-24T05:20:23;14.30;;;13.67;;
7587;SDS011;3835;48.850;8.938;2023-04-24T05:22:52;12.93;;;12.43;;
7587;SDS011;3835;48.850;8.938;2023-04-24T05:25:19;13.30;;;12.70;;
7587;SDS011;3835;48.850;8.938;2023-04-24T05:27:46;12.07;;;11.47;;
7587;SDS011;3835;48.850;8.938;2023-04-24T05:30:13;13.93;;;13.30;;
7587;SDS011;3835;48.850;8.938;2023-04-24T05:32:40;13.93;;;13.23;;
7587;SDS011;3835;48.850;8.938;2023-04-24T05:35:07;13.63;;;13.03;;
7587;SDS011;3835;48.850;8.938;2023-04-24T05:37:34;15.77;;;14.70;;
7587;SDS011;3835;48.850;8.938;2023-04-24T05:40:02;12.50;;;12.00;;
7587;SDS011;3835;48.850;8.938;2023-04-24T05:42:30;13.47;;;12.77;;
7587;SDS011;3835;48.850;8.938;2023-04-24T05:44:57;13.33;;;12.73;;
7587;SDS011;3835;48.850;8.938;2023-04-24T05:47:24;12.90;;;12.30;;
7587;SDS011;3835;48.850;8.938;2023-04-24T05:49:52;13.43;;;12.73;;
7587;SDS011;3835;48.850;8.938;2023-04-24T05:52:20;12.97;;;11.97;;
7587;SDS011;3835;48.850;8.938;2023-04-24T05:54:47;11.33;;;10.83;;
7587;SDS011;3835;48.850;8.938;2023-04-24T05:57:15;12.70;;;11.80;;
7587;SDS011;3835;48.850;8.938;2023-04-24T05:59:41;12.70;;;12.10;;
7587;SDS011;3835;48.850;8.938;2023-04-24T06:02:08;12.13;;;11.57;;
7587;SDS011;3835;48.850;8.938;2023-04-24T06:04:35;13.87;;;13.17;;
7587;SDS011;3835;48.850;8.938;2023-04-24T06:07:02;12.97;;;12.27;;
7587;SDS011;3835;48.850;8.938;2023-04-24T06:09:28;13.87;;;13.27;;
7587;SDS011;3835;48.850;8.938;2023-04-24T06:11:55;12.27;;;11.77;;
7587;SDS011;3835;48.850;8.938;2023-04-24T06:14:24;12.63;;;11.93;;
7587;SDS011;3835;48.850;8.938;2023-04-24T06:16:51;12.73;;;12.13;;
7587;SDS011;3835;48.850;8.938;2023-04-24T06:19:18;12.70;;;12.00;;
7587;SDS011;3835;48.850;8.938;2023-04-24T06:21:45;13.27;;;12.63;;
7587;SDS011;3835;48.850;8.938;2023-04-24T06:24:13;13.53;;;12.43;;
7587;SDS011;3835;48.850;8.938;2023-04-24T06:26:41;13.07;;;12.47;;
7587;SDS011;3835;48.850;8.938;2023-04-24T06:29:08;13.07;;;12.47;;
7587;SDS011;3835;48.850;8.938;2023-04-24T06:31:36;13.60;;;13.00;;
7587;SDS011;3835;48.850;8.938;2023-04-24T06:34:03;13.00;;;12.30;;
7587;SDS011;3835;48.850;8.938;2023-04-24T06:36:30;12.40;;;11.80;;
7587;SDS011;3835;48.850;8.938;2023-04-24T06:38:59;12.83;;;12.03;;
7587;SDS011;3835;48.850;8.938;2023-04-24T06:41:26;13.53;;;12.73;;
7587;SDS011;3835;48.850;8.938;2023-04-24T06:43:53;15.03;;;14.33;;
7587;SDS011;3835;48.850;8.938;2023-04-24T06:46:19;12.17;;;11.67;;
7587;SDS011;3835;48.850;8.938;2023-04-24T06:48:48;12.83;;;12.23;;
7587;SDS011;3835;48.850;8.938;2023-04-24T06:51:15;12.70;;;12.07;;
7587;SDS011;3835;48.850;8.938;2023-04-24T06:53:43;13.90;;;13.10;;
7587;SDS011;3835;48.850;8.938;2023-04-24T06:56:10;12.60;;;12.00;;
7587;SDS011;3835;48.850;8.938;2023-04-24T06:58:37;14.83;;;14.13;;
7587;SDS011;3835;48.850;8.938;2023-04-24T07:01:03;12.70;;;12.20;;
7587;SDS011;3835;48.850;8.938;2023-04-24T07:03:31;12.67;;;12.00;;
7587;SDS011;3835;48.850;8.938;2023-04-24T07:05:59;12.03;;;11.53;;
7587;SDS011;3835;48.850;8.938;2023-04-24T07:08:26;13.97;;;13.37;;
7587;SDS011;3835;48.850;8.938;2023-04-24T07:10:53;12.53;;;11.93;;
7587;SDS011;3835;48.850;8.938;2023-04-24T07:13:21;11.47;;;10.97;;
7587;SDS011;3835;48.850;8.938;2023-04-24T07:15:48;11.57;;;11.07;;
7587;SDS011;3835;48.850;8.938;2023-04-24T07:18:15;11.93;;;11.43;;
7587;SDS011;3835;48.850;8.938;2023-04-24T07:20:43;12.23;;;11.70;;
7587;SDS011;3835;48.850;8.938;2023-04-24T07:23:11;12.87;;;12.17;;
7587;SDS011;3835;48.850;8.938;2023-04-24T07:25:38;12.73;;;12.13;;
7587;SDS011;3835;48.850;8.938;2023-04-24T07:28:05;12.40;;;11.70;;
7587;SDS011;3835;48.850;8.938;2023-04-24T07:30:32;11.90;;;11.40;;
7587;SDS011;3835;48.850;8.938;2023-04-24T07:32:59;12.90;;;12.03;;
7587;SDS011;3835;48.850;8.938;2023-04-24T07:35:26;12.80;;;12.20;;
7587;SDS011;3835;48.850;8.938;2023-04-24T07:37:53;12.03;;;11.43;;
7587;SDS011;3835;48.850;8.938;2023-04-24T07:40:21;12.60;;;11.90;;
7587;SDS011;3835;48.850;8.938;2023-04-24T07:42:48;15.07;;;14.27;;
7587;SDS011;3835;48.850;8.938;2023-04-24T07:45:15;14.50;;;13.80;;
7587;SDS011;3835;48.850;8.938;2023-04-24T07:47:42;13.47;;;12.77;;
7587;SDS011;3835;48.850;8.938;2023-04-24T07:50:10;13.23;;;12.43;;
7587;SDS011;3835;48.850;8.938;2023-04-24T07:52:37;12.93;;;12.33;;
7587;SDS011;3835;48.850;8.938;2023-04-24T07:55:04;12.93;;;12.10;;
7587;SDS011;3835;48.850;8.938;2023-04-24T07:57:33;13.97;;;13.37;;
7587;SDS011;3835;48.850;8.938;2023-04-24T08:00:00;12.60;;;12.00;;
7587;SDS011;3835;48.850;8.938;2023-04-24T08:02:28;13.47;;;12.93;;
7587;SDS011;3835;48.850;8.938;2023-04-24T08:04:55;13.77;;;13.17;;
7587;SDS011;3835;48.850;8.938;2023-04-24T08:07:22;12.00;;;11.43;;
7587;SDS011;3835;48.850;8.938;2023-04-24T08:09:49;12.57;;;11.73;;
7587;SDS011;3835;48.850;8.938;2023-04-24T08:12:16;10.93;;;10.43;;
7587;SDS011;3835;48.850;8.938;2023-04-24T08:14:44;11.63;;;11.10;;
7587;SDS011;3835;48.850;8.938;2023-04-24T08:17:11;12.47;;;11.87;;
7587;SDS011;3835;48.850;8.938;2023-04-24T08:19:39;12.97;;;12.27;;
7587;SDS011;3835;48.850;8.938;2023-04-24T08:22:12;12.30;;;11.70;;
7587;SDS011;3835;48.850;8.938;2023-04-24T08:24:39;11.70;;;11.17;;
7587;SDS011;3835;48.850;8.938;2023-04-24T08:27:06;14.43;;;13.73;;
7587;SDS011;3835;48.850;8.938;2023-04-24T08:29:33;13.37;;;12.73;;
7587;SDS011;3835;48.850;8.938;2023-04-24T08:32:01;12.23;;;11.47;;
7587;SDS011;3835;48.850;8.938;2023-04-24T08:34:27;13.10;;;12.47;;
7587;SDS011;3835;48.850;8.938;2023-04-24T08:36:54;12.27;;;11.73;;
7587;SDS011;3835;48.850;8.938;2023-04-24T08:39:21;12.53;;;12.03;;
7587;SDS011;3835;48.850;8.938;2023-04-24T08:41:48;11.20;;;10.70;;
7587;SDS011;3835;48.850;8.938;2023-04-24T08:44:15;12.10;;;11.60;;
7587;SDS011;3835;48.850;8.938;2023-04-24T08:46:42;16.73;;;15.83;;
7587;SDS011;3835;48.850;8.938;2023-04-24T08:49:12;14.00;;;13.20;;
7587;SDS011;3835;48.850;8.938;2023-04-24T08:51:41;12.30;;;11.73;;
7587;SDS011;3835;48.850;8.938;2023-04-24T08:54:08;13.07;;;12.47;;
7587;SDS011;3835;48.850;8.938;2023-04-24T08:56:35;13.90;;;13.13;;
7587;SDS011;3835;48.850;8.938;2023-04-24T08:59:04;12.50;;;11.90;;
7587;SDS011;3835;48.850;8.938;2023-04-24T09:01:32;10.87;;;10.37;;
7587;SDS011;3835;48.850;8.938;2023-04-24T09:04:00;12.67;;;12.07;;
7587;SDS011;3835;48.850;8.938;2023-04-24T09:06:29;11.97;;;11.43;;
7587;SDS011;3835;48.850;8.938;2023-04-24T09:08:58;11.73;;;11.23;;
7587;SDS011;3835;48.850;8.938;2023-04-24T09:11:29;11.97;;;11.40;;
7587;SDS011;3835;48.850;8.938;2023-04-24T09:13:56;11.93;;;11.23;;
7587;SDS011;3835;48.850;8.938;2023-04-24T09:16:24;11.17;;;10.57;;
7587;SDS011;3835;48.850;8.938;2023-04-24T09:18:52;11.10;;;10.50;;
7587;SDS011;3835;48.850;8.938;2023-04-24T09:21:20;12.13;;;11.63;;
7587;SDS011;3835;48.850;8.938;2023-04-24T09:23:49;11.00;;;10.57;;
7587;SDS011;3835;48.850;8.938;2023-04-24T09:26:24;17.00;;;16.10;;
7587;SDS011;3835;48.850;8.938;2023-04-24T09:28:51;13.00;;;12.50;;
7587;SDS011;3835;48.850;8.938;2023-04-24T09:31:19;13.97;;;13.40;;
7587;SDS011;3835;48.850;8.938;2023-04-24T09:33:53;12.90;;;12.30;;
7587;SDS011;3835;48.850;8.938;2023-04-24T09:36:26;13.00;;;12.43;;
7587;SDS011;3835;48.850;8.938;2023-04-24T09:38:57;14.07;;;13.37;;
7587;SDS011;3835;48.850;8.938;2023-04-24T09:41:24;15.43;;;14.67;;
7587;SDS011;3835;48.850;8.938;2023-04-24T09:43:53;12.60;;;11.90;;
7587;SDS011;3835;48.850;8.938;2023-04-24T09:46:20;11.73;;;11.13;;
7587;SDS011;3835;48.850;8.938;2023-04-24T09:48:47;12.17;;;11.53;;
7587;SDS011;3835;48.850;8.938;2023-04-24T09:51:14;12.30;;;11.70;;
7587;SDS011;3835;48.850;8.938;2023-04-24T09:53:44;12.00;;;11.40;;
7587;SDS011;3835;48.850;8.938;2023-04-24T09:56:13;11.50;;;11.00;;
7587;SDS011;3835;48.850;8.938;2023-04-24T09:58:40;12.73;;;12.13;;
7587;SDS011;3835;48.850;8.938;2023-04-24T10:01:07;11.60;;;11.00;;
7587;SDS011;3835;48.850;8.938;2023-04-24T10:03:34;1999.90;;;999.90;;
7587;SDS011;3835;48.850;8.938;2023-04-24T10:06:02;12.73;;;12.13;;
7587;SDS011;3835;48.850;8.938;2023-04-24T10:08:34;11.60;;;11.10;;
7587;SDS011;3835;48.850;8.938;2023-04-24T10:11:02;12.50;;;11.90;;
7587;SDS011;3835;48.850;8.938;2023-04-24T10:13:30;14.63;;;13.97;;
7587;SDS011;3835;48.850;8.938;2023-04-24T10:15:58;14.13;;;13.53;;
7587;SDS011;3835;48.850;8.938;2023-04-24T10:18:26;12.47;;;11.97;;
7587;SDS011;3835;48.850;8.938;2023-04-24T10:20:53;12.70;;;12.07;;
7587;SDS011;3835;48.850;8.938;2023-04-24T10:23:21;11.67;;;11.13;;
7587;SDS011;3835;48.850;8.938;2023-04-24T10:25:48;13.87;;;13.27;;
7587;SDS011;3835;48.850;8.938;2023-04-24T10:28:16;12.00;;;11.33;;
7587;SDS011;3835;48.850;8.938;2023-04-24T10:30:46;14.33;;;13.53;;
7587;SDS011;3835;48.850;8.938;2023-04-24T10:33:14;12.33;;;11.73;;
7587;SDS011;3835;48.850;8.938;2023-04-24T10:35:44;12.50;;;12.00;;
7587;SDS011;3835;48.850;8.938;2023-04-24T10:38:14;11.90;;;11.40;;
7587;SDS011;3835;48.850;8.938;2023-04-24T10:40:44;12.13;;;11.53;;
7587;SDS011;3835;48.850;8.938;2023-04-24T10:43:11;13.30;;;12.70;;
7587;SDS011;3835;48.850;8.938;2023-04-24T10:45:59;12.40;;;11.80;;
7587;SDS011;3835;48.850;8.938;2023-04-24T10:48:27;11.13;;;10.53;;
7587;SDS011;3835;48.850;8.938;2023-04-24T10:50:54;11.57;;;10.97;;
7587;SDS011;3835;48.850;8.938;2023-04-24T10:53:21;13.10;;;12.50;;
7587;SDS011;3835;48.850;8.938;2023-04-24T10:55:50;11.17;;;10.67;;
7587;SDS011;3835;48.850;8.938;2023-04-24T10:58:21;11.50;;;10.97;;
7587;SDS011;3835;48.850;8.938;2023-04-24T11:00:56;12.87;;;12.07;;
7587;SDS011;3835;48.850;8.938;2023-04-24T11:03:25;11.37;;;10.77;;
7587;SDS011;3835;48.850;8.938;2023-04-24T11:05:54;11.90;;;11.40;;
7587;SDS011;3835;48.850;8.938;2023-04-24T11:08:24;12.50;;;11.87;;
7587;SDS011;3835;48.850;8.938;2023-04-24T11:10:57;14.20;;;13.50;;
7587;SDS011;3835;48.850;8.938;2023-04-24T11:13:25;12.77;;;12.17;;
7587;SDS011;3835;48.850;8.938;2023-04-24T11:16:13;12.53;;;11.93;;
7587;SDS011;3835;48.850;8.938;2023-04-24T11:18:41;13.07;;;12.23;;
7587;SDS011;3835;48.850;8.938;2023-04-24T11:21:11;12.07;;;11.57;;
7587;SDS011;3835;48.850;8.938;2023-04-24T11:23:38;12.40;;;11.67;;
7587;SDS011;3835;48.850;8.938;2023-04-24T11:26:12;13.10;;;12.50;;
7587;SDS011;3835;48.850;8.938;2023-04-24T11:28:49;13.77;;;13.17;;
7587;SDS011;3835;48.850;8.938;2023-04-24T11:31:37;11.10;;;10.60;;
7587;SDS011;3835;48.850;8.938;2023-04-24T11:34:08;14.17;;;13.53;;
7587;SDS011;3835;48.850;8.938;2023-04-24T11:36:35;12.63;;;12.03;;
7587;SDS011;3835;48.850;8.938;2023-04-24T11:39:02;13.30;;;12.70;;
7587;SDS011;3835;48.850;8.938;2023-04-24T11:41:30;11.70;;;11.20;;
7587;SDS011;3835;48.850;8.938;2023-04-24T11:43:57;12.20;;;11.60;;
7587;SDS011;3835;48.850;8.938;2023-04-24T11:46:26;13.47;;;12.87;;
7587;SDS011;3835;48.850;8.938;2023-04-24T11:48:55;12.77;;;12.23;;
7587;SDS011;3835;48.850;8.938;2023-04-24T11:51:23;14.47;;;13.87;;
7587;SDS011;3835;48.850;8.938;2023-04-24T11:53:50;11.37;;;10.83;;
7587;SDS011;3835;48.850;8.938;2023-04-24T11:56:17;13.27;;;12.67;;
7587;SDS011;3835;48.850;8.938;2023-04-24T11:58:45;12.00;;;11.50;;
7587;SDS011;3835;48.850;8.938;2023-04-24T12:01:12;11.07;;;10.57;;
7587;SDS011;3835;48.850;8.938;2023-04-24T12:03:40;12.00;;;11.40;;
7587;SDS011;3835;48.850;8.938;2023-04-24T12:06:11;14.00;;;13.10;;
7587;SDS011;3835;48.850;8.938;2023-04-24T12:08:38;12.10;;;11.60;;
7587;SDS011;3835;48.850;8.938;2023-04-24T12:11:06;12.13;;;11.53;;
7587;SDS011;3835;48.850;8.938;2023-04-24T12:13:33;11.13;;;10.63;;
7587;SDS011;3835;48.850;8.938;2023-04-24T12:16:01;12.33;;;11.73;;
7587;SDS011;3835;48.850;8.938;2023-04-24T12:18:30;12.77;;;11.77;;
7587;SDS011;3835;48.850;8.938;2023-04-24T12:23:44;12.73;;;12.13;;
7587;SDS011;3835;48.850;8.938;2023-04-24T12:26:11;13.17;;;12.57;;
7587;SDS011;3835;48.850;8.938;2023-04-24T12:28:38;13.13;;;12.53;;
7587;SDS011;3835;48.850;8.938;2023-04-24T12:31:06;13.57;;;12.97;;
7587;SDS011;3835;48.850;8.938;2023-04-24T12:33:34;13.13;;;12.53;;
7587;SDS011;3835;48.850;8.938;2023-04-24T12:36:01;12.07;;;11.57;;
7587;SDS011;3835;48.850;8.938;2023-04-24T12:38:30;14.20;;;13.37;;
7587;SDS011;3835;48.850;8.938;2023-04-24T12:41:05;13.67;;;13.07;;
7587;SDS011;3835;48.850;8.938;2023-04-24T12:43:33;13.53;;;12.93;;
7587;SDS011;3835;48.850;8.938;2023-04-24T12:46:00;13.27;;;12.67;;
7587;SDS011;3835;48.850;8.938;2023-04-24T12:48:27;12.93;;;12.23;;
7587;SDS011;3835;48.850;8.938;2023-04-24T12:50:54;15.10;;;14.50;;
7587;SDS011;3835;48.850;8.938;2023-04-24T12:53:22;11.00;;;10.37;;
7587;SDS011;3835;48.850;8.938;2023-04-24T12:55:52;15.37;;;14.43;;
7587;SDS011;3835;48.850;8.938;2023-04-24T12:58:19;13.83;;;13.17;;
7587;SDS011;3835;48.850;8.938;2023-04-24T13:00:46;15.13;;;14.30;;
7587;SDS011;3835;48.850;8.938;2023-04-24T13:03:14;12.90;;;12.17;;
7587;SDS011;3835;48.850;8.938;2023-04-24T13:05:41;13.13;;;12.43;;
7587;SDS011;3835;48.850;8.938;2023-04-24T13:08:08;1999.90;;;999.90;;
7587;SDS011;3835;48.850;8.938;2023-04-24T13:10:35;1999.90;;;999.90;;
7587;SDS011;3835;48.850;8.938;2023-04-24T13:13:03;1999.90;;;999.90;;
7587;SDS011;3835;48.850;8.938;2023-04-24T13:15:30;1999.90;;;999.90;;
7587;SDS011;3835;48.850;8.938;2023-04-24T13:17:57;1999.90;;;999.90;;
7587;SDS011;3835;48.850;8.938;2023-04-24T13:20:24;1999.90;;;999.90;;
7587;SDS011;3835;48.850;8.938;2023-04-24T13:22:51;1999.90;;;999.90;;
7587;SDS011;3835;48.850;8.938;2023-04-24T13:25:18;1999.90;;;999.90;;
7587;SDS011;3835;48.850;8.938;2023-04-24T13:27:45;12.37;;;11.77;;
7587;SDS011;3835;48.850;8.938;2023-04-24T13:30:13;13.03;;;12.43;;
7587;SDS011;3835;48.850;8.938;2023-04-24T13:32:40;12.63;;;11.73;;
7587;SDS011;3835;48.850;8.938;2023-04-24T13:35:07;11.93;;;11.33;;
7587;SDS011;3835;48.850;8.938;2023-04-24T13:37:34;11.97;;;11.27;;
7587;SDS011;3835;48.850;8.938;2023-04-24T13:40:01;12.77;;;12.17;;
7587;SDS011;3835;48.850;8.938;2023-04-24T13:42:30;14.60;;;14.00;;
7587;SDS011;3835;48.850;8.938;2023-04-24T13:44:57;12.13;;;11.23;;
7587;SDS011;3835;48.850;8.938;2023-04-24T13:47:26;11.10;;;10.50;;
7587;SDS011;3835;48.850;8.938;2023-04-24T13:49:52;10.77;;;10.27;;
7587;SDS011;3835;48.850;8.938;2023-04-24T13:52:19;12.03;;;11.43;;
7587;SDS011;3835;48.850;8.938;2023-04-24T13:54:46;12.60;;;12.00;;
7587;SDS011;3835;48.850;8.938;2023-04-24T13:57:13;11.40;;;10.80;;
7587;SDS011;3835;48.850;8.938;2023-04-24T13:59:40;11.10;;;10.60;;
7587;SDS011;3835;48.850;8.938;2023-04-24T14:02:07;13.53;;;12.73;;
7587;SDS011;3835;48.850;8.938;2023-04-24T14:04:35;11.93;;;11.43;;
7587;SDS011;3835;48.850;8.938;2023-04-24T14:07:02;13.50;;;12.80;;
7587;SDS011;3835;48.850;8.938;2023-04-24T14:09:28;12.40;;;11.80;;
7587;SDS011;3835;48.850;8.938;2023-04-24T14:11:55;14.83;;;14.13;;
7587;SDS011;3835;48.850;8.938;2023-04-24T14:14:22;14.47;;;13.77;;
7587;SDS011;3835;48.850;8.938;2023-04-24T14:16:49;15.83;;;15.13;;
7587;SDS011;3835;48.850;8.938;2023-04-24T14:19:16;11.67;;;11.03;;
7587;SDS011;3835;48.850;8.938;2023-04-24T14:21:44;12.97;;;12.37;;
7587;SDS011;3835;48.850;8.938;2023-04-24T14:24:11;13.23;;;12.53;;
7587;SDS011;3835;48.850;8.938;2023-04-24T14:26:37;12.90;;;12.20;;
7587;SDS011;3835;48.850;8.938;2023-04-24T14:29:04;12.17;;;11.47;;
7587;SDS011;3835;48.850;8.938;2023-04-24T14:31:31;12.53;;;11.90;;
7587;SDS011;3835;48.850;8.938;2023-04-24T14:33:58;12.30;;;11.70;;
7587;SDS011;3835;48.850;8.938;2023-04-24T14:36:24;13.57;;;12.87;;
7587;SDS011;3835;48.850;8.938;2023-04-24T14:38:52;14.67;;;13.50;;
7587;SDS011;3835;48.850;8.938;2023-04-24T14:41:19;11.10;;;10.50;;
7587;SDS011;3835;48.850;8.938;2023-04-24T14:43:46;15.60;;;14.90;;
7587;SDS011;3835;48.850;8.938;2023-04-24T14:46:13;13.60;;;12.77;;
7587;SDS011;3835;48.850;8.938;2023-04-24T14:48:39;13.73;;;13.13;;
7587;SDS011;3835;48.850;8.938;2023-04-24T14:51:06;12.63;;;12.00;;
7587;SDS011;3835;48.850;8.938;2023-04-24T14:53:33;12.77;;;12.17;;